sensor_id;sensor_type;location;lat;lon;timestamp;pressure;altitude;pressure_sealevel;temperature;humidity
113;BME280;45999;48.808;9.182;2023-08-21T00:00:12;98572.16;;;24.97;100.00
113;BME280;45999;48.808;9.182;2023-08-21T00:02:39;98580.81;;;24.85;100.00
113;BME280;45999;48.808;9.182;2023-08-21T00:05:05;98580.91;;;24.80;100.00
113;BME280;45999;48.808;9.182;2023-08-21T00:07:32;98586.41;;;24.75;100.00
113;BME280;45999;48.808;9.182;2023-08-21T00:09:58;98589.44;;;24.74;100.00
113;BME280;45999;48.808;9.182;2023-08-21T00:12:25;98590.19;;;24.93;100.00
113;BME280;45999;48.808;9.182;2023-08-21T00:14:51;98589.94;;;24.76;100.00
113;BME280;45999;48.808;9.182;2023-08-21T00:17:17;98581.47;;;24.77;100.00
113;BME280;45999;48.808;9.182;2023-08-21T00:19:44;98585.81;;;24.78;100.00
113;BME280;45999;48.808;9.182;2023-08-21T00:22:10;98583.47;;;24.72;100.00
113;BME280;45999;48.808;9.182;2023-08-21T00:24:37;98582.69;;;24.71;100.00
113;BME280;45999;48.808;9.182;2023-08-21T00:27:03;98577.31;;;24.66;100.00
113;BME280;45999;48.808;9.182;2023-08-21T00:29:29;98582.69;;;24.71;100.00
113;BME280;45999;48.808;9.182;2023-08-21T00:31:56;98581.72;;;24.62;100.00
113;BME280;45999;48.808;9.182;2023-08-21T00:34:22;98582.41;;;24.86;100.00
113;BME280;45999;48.808;9.182;2023-08-21T00:36:48;98578.31;;;25.02;100.00
113;BME280;45999;48.808;9.182;2023-08-21T00:39:15;98574.28;;;25.00;100.00
113;BME280;45999;48.808;9.182;2023-08-21T00:41:41;98572.03;;;24.88;100.00
113;BME280;45999;48.808;9.182;2023-08-21T00:44:08;98572.41;;;24.82;100.00
113;BME280;45999;48.808;9.182;2023-08-21T00:46:34;98570.03;;;24.94;100.00
113;BME280;45999;48.808;9.182;2023-08-21T00:49:01;98570.63;;;24.91;100.00
113;BME280;45999;48.808;9.182;2023-08-21T00:51:28;98559.34;;;24.84;100.00
113;BME280;45999;48.808;9.182;2023-08-21T00:53:55;98558.56;;;24.97;100.00
113;BME280;45999;48.808;9.182;2023-08-21T00:56:21;98566.81;;;24.92;100.00
113;BME280;45999;48.808;9.182;2023-08-21T00:58:47;98559.91;;;24.81;100.00
113;BME280;45999;48.808;9.182;2023-08-21T01:01:15;98562.06;;;24.84;100.00
113;BME280;45999;48.808;9.182;2023-08-21T01:03:43;98558.81;;;24.82;100.00
113;BME280;45999;48.808;9.182;2023-08-21T01:06:10;98556.63;;;24.84;100.00
113;BME280;45999;48.808;9.182;2023-08-21T01:08:49;98559.00;;;24.72;100.00
113;BME280;45999;48.808;9.182;2023-08-21T01:14:28;98560.81;;;24.58;100.00
113;BME280;45999;48.808;9.182;2023-08-21T01:17:00;98561.81;;;24.48;100.00
113;BME280;45999;48.808;9.182;2023-08-21T01:21:59;98556.38;;;24.30;100.00
113;BME280;45999;48.808;9.182;2023-08-21T01:24:25;98566.22;;;24.26;100.00
113;BME280;45999;48.808;9.182;2023-08-21T01:26:52;98562.47;;;24.22;100.00
113;BME280;45999;48.808;9.182;2023-08-21T01:29:18;98563.88;;;24.19;100.00
113;BME280;45999;48.808;9.182;2023-08-21T01:31:50;98566.75;;;24.09;100.00
113;BME280;45999;48.808;9.182;2023-08-21T01:34:17;98567.59;;;24.05;100.00
113;BME280;45999;48.808;9.182;2023-08-21T01:36:45;98571.00;;;23.97;100.00
113;BME280;45999;48.808;9.182;2023-08-21T01:39:12;98574.00;;;23.95;100.00
113;BME280;45999;48.808;9.182;2023-08-21T01:41:38;98567.59;;;23.86;100.00
113;BME280;45999;48.808;9.182;2023-08-21T01:44:04;98562.22;;;23.81;100.00
113;BME280;45999;48.808;9.182;2023-08-21T01:46:31;98561.09;;;23.82;100.00
113;BME280;45999;48.808;9.182;2023-08-21T01:48:57;98556.50;;;23.83;100.00
113;BME280;45999;48.808;9.182;2023-08-21T01:51:24;98557.16;;;23.75;100.00
113;BME280;45999;48.808;9.182;2023-08-21T01:53:50;98560.44;;;23.72;100.00
113;BME280;45999;48.808;9.182;2023-08-21T01:56:16;98563.50;;;23.65;100.00
113;BME280;45999;48.808;9.182;2023-08-21T01:58:43;98561.53;;;23.71;100.00
113;BME280;45999;48.808;9.182;2023-08-21T02:01:09;98558.94;;;23.61;100.00
113;BME280;45999;48.808;9.182;2023-08-21T02:03:35;98556.75;;;23.63;100.00
113;BME280;45999;48.808;9.182;2023-08-21T02:06:02;98563.28;;;23.62;100.00
113;BME280;45999;48.808;9.182;2023-08-21T02:08:32;98561.13;;;23.59;100.00
113;BME280;45999;48.808;9.182;2023-08-21T02:10:58;98553.06;;;23.54;100.00
113;BME280;45999;48.808;9.182;2023-08-21T02:13:25;98550.94;;;23.51;100.00
113;BME280;45999;48.808;9.182;2023-08-21T02:15:51;98553.06;;;23.54;100.00
113;BME280;45999;48.808;9.182;2023-08-21T02:18:18;98554.50;;;23.46;100.00
113;BME280;45999;48.808;9.182;2023-08-21T02:20:44;98550.47;;;23.44;100.00
113;BME280;45999;48.808;9.182;2023-08-21T02:23:10;98553.19;;;23.44;100.00
113;BME280;45999;48.808;9.182;2023-08-21T02:25:37;98548.31;;;23.41;100.00
113;BME280;45999;48.808;9.182;2023-08-21T02:28:03;98548.63;;;23.39;100.00
113;BME280;45999;48.808;9.182;2023-08-21T02:30:30;98552.13;;;23.40;100.00
113;BME280;45999;48.808;9.182;2023-08-21T02:32:56;98552.44;;;23.38;100.00
113;BME280;45999;48.808;9.182;2023-08-21T02:35:22;98559.78;;;23.38;100.00
113;BME280;45999;48.808;9.182;2023-08-21T02:37:49;98557.69;;;23.30;100.00
113;BME280;45999;48.808;9.182;2023-08-21T02:40:16;98553.94;;;23.26;100.00
113;BME280;45999;48.808;9.182;2023-08-21T02:42:42;98558.34;;;23.17;100.00
113;BME280;45999;48.808;9.182;2023-08-21T02:45:09;98564.84;;;23.21;100.00
113;BME280;45999;48.808;9.182;2023-08-21T02:47:37;98563.19;;;23.25;100.00
113;BME280;45999;48.808;9.182;2023-08-21T02:50:07;98563.22;;;23.20;100.00
113;BME280;45999;48.808;9.182;2023-08-21T02:52:34;98563.97;;;23.25;100.00
113;BME280;45999;48.808;9.182;2023-08-21T02:55:02;98564.31;;;23.19;100.00
113;BME280;45999;48.808;9.182;2023-08-21T02:57:28;98558.63;;;23.15;100.00
113;BME280;45999;48.808;9.182;2023-08-21T02:59:55;98564.03;;;23.20;100.00
113;BME280;45999;48.808;9.182;2023-08-21T03:02:22;98559.94;;;23.18;100.00
113;BME280;45999;48.808;9.182;2023-08-21T03:04:49;98556.19;;;23.14;100.00
113;BME280;45999;48.808;9.182;2023-08-21T03:07:16;98560.53;;;23.15;100.00
113;BME280;45999;48.808;9.182;2023-08-21T03:09:45;98560.63;;;23.05;100.00
113;BME280;45999;48.808;9.182;2023-08-21T03:12:12;98563.97;;;22.97;100.00
113;BME280;45999;48.808;9.182;2023-08-21T03:14:38;98563.97;;;22.97;100.00
113;BME280;45999;48.808;9.182;2023-08-21T03:17:04;98566.69;;;22.97;100.00
113;BME280;45999;48.808;9.182;2023-08-21T03:19:31;98569.47;;;22.92;100.00
113;BME280;45999;48.808;9.182;2023-08-21T03:21:57;98566.53;;;22.83;100.00
113;BME280;45999;48.808;9.182;2023-08-21T03:24:23;98565.84;;;22.68;100.00
113;BME280;45999;48.808;9.182;2023-08-21T03:26:50;98569.03;;;22.80;100.00
113;BME280;45999;48.808;9.182;2023-08-21T03:29:16;98578.63;;;22.67;100.00
113;BME280;45999;48.808;9.182;2023-08-21T03:31:42;98561.25;;;22.68;100.00
113;BME280;45999;48.808;9.182;2023-08-21T03:34:09;98566.44;;;22.65;100.00
113;BME280;45999;48.808;9.182;2023-08-21T03:36:35;98567.84;;;22.57;100.00
113;BME280;45999;48.808;9.182;2023-08-21T03:39:03;98572.25;;;22.53;100.00
113;BME280;45999;48.808;9.182;2023-08-21T03:41:30;98563.47;;;22.61;100.00
113;BME280;45999;48.808;9.182;2023-08-21T03:43:57;98563.25;;;22.58;100.00
113;BME280;45999;48.808;9.182;2023-08-21T03:46:23;98564.66;;;22.50;100.00
113;BME280;45999;48.808;9.182;2023-08-21T03:48:50;98562.13;;;22.59;100.00
113;BME280;45999;48.808;9.182;2023-08-21T03:51:16;98574.91;;;22.58;100.00
113;BME280;45999;48.808;9.182;2023-08-21T03:53:42;98573.03;;;22.54;100.00
113;BME280;45999;48.808;9.182;2023-08-21T03:56:09;98582.84;;;22.40;100.00
113;BME280;45999;48.808;9.182;2023-08-21T03:58:35;98583.13;;;22.38;100.00
113;BME280;45999;48.808;9.182;2023-08-21T04:01:02;98580.09;;;22.45;100.00
113;BME280;45999;48.808;9.182;2023-08-21T04:03:28;98585.00;;;22.43;100.00
113;BME280;45999;48.808;9.182;2023-08-21T04:05:54;98580.97;;;22.45;100.00
113;BME280;45999;48.808;9.182;2023-08-21T04:08:22;98587.47;;;22.39;100.00
113;BME280;45999;48.808;9.182;2023-08-21T04:10:48;98594.25;;;22.37;100.00
113;BME280;45999;48.808;9.182;2023-08-21T04:13:17;98596.38;;;22.45;100.00
113;BME280;45999;48.808;9.182;2023-08-21T04:15:48;98601.31;;;22.38;100.00
113;BME280;45999;48.808;9.182;2023-08-21T04:18:16;98596.97;;;22.37;100.00
113;BME280;45999;48.808;9.182;2023-08-21T04:20:42;98608.88;;;22.36;100.00
113;BME280;45999;48.808;9.182;2023-08-21T04:23:08;98607.53;;;22.38;100.00
113;BME280;45999;48.808;9.182;2023-08-21T04:25:35;98608.84;;;22.46;100.00
113;BME280;45999;48.808;9.182;2023-08-21T04:28:01;98611.00;;;22.44;100.00
113;BME280;45999;48.808;9.182;2023-08-21T04:30:28;98609.13;;;22.44;100.00
113;BME280;45999;48.808;9.182;2023-08-21T04:32:54;98612.16;;;22.38;100.00
113;BME280;45999;48.808;9.182;2023-08-21T04:35:20;98607.00;;;22.36;100.00
113;BME280;45999;48.808;9.182;2023-08-21T04:37:47;98613.25;;;22.32;100.00
113;BME280;45999;48.808;9.182;2023-08-21T04:40:14;98613.53;;;22.35;100.00
113;BME280;45999;48.808;9.182;2023-08-21T04:42:42;98604.59;;;22.30;100.00
113;BME280;45999;48.808;9.182;2023-08-21T04:45:09;98608.66;;;22.32;100.00
113;BME280;45999;48.808;9.182;2023-08-21T04:47:35;98611.88;;;22.34;100.00
113;BME280;45999;48.808;9.182;2023-08-21T04:50:02;98600.88;;;22.21;100.00
113;BME280;45999;48.808;9.182;2023-08-21T04:52:28;98611.91;;;22.29;100.00
113;BME280;45999;48.808;9.182;2023-08-21T04:54:55;98596.44;;;22.35;100.00
113;BME280;45999;48.808;9.182;2023-08-21T04:57:21;98609.94;;;22.40;100.00
113;BME280;45999;48.808;9.182;2023-08-21T04:59:48;98607.22;;;22.45;100.00
113;BME280;45999;48.808;9.182;2023-08-21T05:02:14;98610.19;;;22.43;100.00
113;BME280;45999;48.808;9.182;2023-08-21T05:04:40;98612.63;;;22.45;100.00
113;BME280;45999;48.808;9.182;2023-08-21T05:07:07;98609.91;;;22.50;100.00
113;BME280;45999;48.808;9.182;2023-08-21T05:09:33;98616.63;;;22.57;100.00
113;BME280;45999;48.808;9.182;2023-08-21T05:12:00;98620.06;;;22.68;100.00
113;BME280;45999;48.808;9.182;2023-08-21T05:14:26;98624.94;;;22.71;100.00
113;BME280;45999;48.808;9.182;2023-08-21T05:16:53;98617.03;;;22.74;100.00
113;BME280;45999;48.808;9.182;2023-08-21T05:19:20;98620.28;;;22.76;100.00
113;BME280;45999;48.808;9.182;2023-08-21T05:21:46;98620.75;;;22.83;100.00
113;BME280;45999;48.808;9.182;2023-08-21T05:24:12;98625.91;;;22.85;100.00
113;BME280;45999;48.808;9.182;2023-08-21T05:26:39;98617.22;;;22.88;100.00
113;BME280;45999;48.808;9.182;2023-08-21T05:29:05;98625.81;;;22.95;100.00
113;BME280;45999;48.808;9.182;2023-08-21T05:31:31;98624.97;;;22.99;100.00
113;BME280;45999;48.808;9.182;2023-08-21T05:33:58;98622.97;;;23.10;100.00
113;BME280;45999;48.808;9.182;2023-08-21T05:36:24;98628.59;;;23.18;100.00
113;BME280;45999;48.808;9.182;2023-08-21T05:38:51;98631.50;;;23.27;100.00
113;BME280;45999;48.808;9.182;2023-08-21T05:41:17;98632.00;;;23.34;100.00
113;BME280;45999;48.808;9.182;2023-08-21T05:43:44;98628.69;;;23.37;100.00
113;BME280;45999;48.808;9.182;2023-08-21T05:46:11;98632.41;;;23.46;100.00
113;BME280;45999;48.808;9.182;2023-08-21T05:48:37;98633.97;;;23.52;100.00
113;BME280;45999;48.808;9.182;2023-08-21T05:51:04;98634.72;;;23.57;100.00
113;BME280;45999;48.808;9.182;2023-08-21T05:53:30;98637.09;;;23.64;100.00
113;BME280;45999;48.808;9.182;2023-08-21T05:55:56;98638.38;;;23.71;100.00
113;BME280;45999;48.808;9.182;2023-08-21T05:58:23;98637.78;;;23.74;100.00
113;BME280;45999;48.808;9.182;2023-08-21T06:00:54;98640.59;;;23.93;100.00
113;BME280;45999;48.808;9.182;2023-08-21T06:03:20;98642.59;;;24.06;100.00
113;BME280;45999;48.808;9.182;2023-08-21T06:05:47;98643.63;;;24.10;100.00
113;BME280;45999;48.808;9.182;2023-08-21T06:08:13;98643.16;;;24.03;100.00
113;BME280;45999;48.808;9.182;2023-08-21T06:10:40;98639.88;;;24.06;100.00
113;BME280;45999;48.808;9.182;2023-08-21T06:13:06;98645.41;;;24.19;100.00
113;BME280;45999;48.808;9.182;2023-08-21T06:15:33;98646.72;;;24.22;100.00
113;BME280;45999;48.808;9.182;2023-08-21T06:17:59;98645.03;;;24.26;100.00
113;BME280;45999;48.808;9.182;2023-08-21T06:20:26;98648.72;;;24.35;100.00
113;BME280;45999;48.808;9.182;2023-08-21T06:22:52;98638.59;;;24.40;100.00
113;BME280;45999;48.808;9.182;2023-08-21T06:25:18;98649.59;;;24.49;100.00
113;BME280;45999;48.808;9.182;2023-08-21T06:27:46;98656.22;;;24.43;100.00
113;BME280;45999;48.808;9.182;2023-08-21T06:30:12;98649.09;;;24.47;100.00
113;BME280;45999;48.808;9.182;2023-08-21T06:32:42;98649.22;;;24.55;100.00
113;BME280;45999;48.808;9.182;2023-08-21T06:35:08;98657.50;;;24.69;100.00
113;BME280;45999;48.808;9.182;2023-08-21T06:37:35;98653.88;;;24.92;100.00
113;BME280;45999;48.808;9.182;2023-08-21T06:40:01;98653.97;;;25.19;100.00
113;BME280;45999;48.808;9.182;2023-08-21T06:42:28;98652.78;;;24.74;100.00
113;BME280;45999;48.808;9.182;2023-08-21T06:44:55;98652.78;;;24.74;100.00
113;BME280;45999;48.808;9.182;2023-08-21T06:47:21;98659.41;;;24.87;100.00
113;BME280;45999;48.808;9.182;2023-08-21T06:49:47;98661.28;;;24.86;100.00
113;BME280;45999;48.808;9.182;2023-08-21T06:52:14;98662.63;;;24.89;100.00
113;BME280;45999;48.808;9.182;2023-08-21T06:54:40;98663.25;;;24.99;100.00
113;BME280;45999;48.808;9.182;2023-08-21T06:57:07;98664.56;;;25.02;100.00
113;BME280;45999;48.808;9.182;2023-08-21T06:59:33;98657.75;;;25.18;100.00
113;BME280;45999;48.808;9.182;2023-08-21T07:02:02;98666.94;;;25.22;100.00
113;BME280;45999;48.808;9.182;2023-08-21T07:04:28;98662.69;;;25.16;100.00
113;BME280;45999;48.808;9.182;2023-08-21T07:06:55;98668.44;;;25.14;100.00
113;BME280;45999;48.808;9.182;2023-08-21T07:09:21;98668.66;;;25.18;100.00
113;BME280;45999;48.808;9.182;2023-08-21T07:11:47;98662.28;;;25.41;100.00
113;BME280;45999;48.808;9.182;2023-08-21T07:14:14;98668.25;;;25.56;100.00
113;BME280;45999;48.808;9.182;2023-08-21T07:16:42;98670.19;;;25.56;100.00
113;BME280;45999;48.808;9.182;2023-08-21T07:19:09;98671.59;;;25.67;100.00
113;BME280;45999;48.808;9.182;2023-08-21T07:21:35;98658.91;;;25.76;100.00
113;BME280;45999;48.808;9.182;2023-08-21T07:24:03;98667.59;;;25.78;100.00
113;BME280;45999;48.808;9.182;2023-08-21T07:26:30;98665.16;;;25.76;100.00
113;BME280;45999;48.808;9.182;2023-08-21T07:28:57;98673.81;;;25.78;100.00
113;BME280;45999;48.808;9.182;2023-08-21T07:31:23;98674.25;;;25.85;100.00
113;BME280;45999;48.808;9.182;2023-08-21T07:33:50;98664.56;;;26.06;100.00
113;BME280;45999;48.808;9.182;2023-08-21T07:36:16;98677.59;;;26.09;100.00
113;BME280;45999;48.808;9.182;2023-08-21T07:38:43;98674.25;;;25.99;100.00
113;BME280;45999;48.808;9.182;2023-08-21T07:41:11;98680.81;;;25.98;100.00
113;BME280;45999;48.808;9.182;2023-08-21T07:43:40;98676.47;;;26.24;100.00
113;BME280;45999;48.808;9.182;2023-08-21T07:46:10;98679.69;;;26.39;100.00
113;BME280;45999;48.808;9.182;2023-08-21T07:48:38;98678.66;;;26.62;100.00
113;BME280;45999;48.808;9.182;2023-08-21T07:51:05;98678.03;;;26.52;100.00
113;BME280;45999;48.808;9.182;2023-08-21T07:53:31;98678.59;;;26.76;100.00
113;BME280;45999;48.808;9.182;2023-08-21T07:56:00;98678.00;;;27.01;100.00
113;BME280;45999;48.808;9.182;2023-08-21T07:58:26;98682.84;;;26.82;99.92
113;BME280;45999;48.808;9.182;2023-08-21T08:00:53;98686.63;;;26.94;100.00
113;BME280;45999;48.808;9.182;2023-08-21T08:03:20;98676.44;;;27.08;100.00
113;BME280;45999;48.808;9.182;2023-08-21T08:05:46;98680.75;;;27.01;99.95
113;BME280;45999;48.808;9.182;2023-08-21T08:08:13;98676.16;;;27.10;100.00
113;BME280;45999;48.808;9.182;2023-08-21T08:10:40;98670.47;;;27.20;100.00
113;BME280;45999;48.808;9.182;2023-08-21T08:13:07;98677.59;;;27.30;100.00
113;BME280;45999;48.808;9.182;2023-08-21T08:15:34;98677.63;;;27.16;98.77
113;BME280;45999;48.808;9.182;2023-08-21T08:18:02;98681.13;;;27.30;100.00
113;BME280;45999;48.808;9.182;2023-08-21T08:20:29;98685.13;;;27.55;97.30
113;BME280;45999;48.808;9.182;2023-08-21T08:22:55;98681.19;;;27.39;100.00
113;BME280;45999;48.808;9.182;2023-08-21T08:25:22;98688.97;;;27.54;98.46
113;BME280;45999;48.808;9.182;2023-08-21T08:27:48;98681.53;;;27.76;96.74
113;BME280;45999;48.808;9.182;2023-08-21T08:30:15;98690.16;;;27.70;95.08
113;BME280;45999;48.808;9.182;2023-08-21T08:32:44;98684.06;;;27.64;96.43
113;BME280;45999;48.808;9.182;2023-08-21T08:35:14;98686.75;;;27.86;95.48
113;BME280;45999;48.808;9.182;2023-08-21T08:37:41;98684.97;;;27.82;95.22
113;BME280;45999;48.808;9.182;2023-08-21T08:40:12;98678.69;;;27.81;98.05
113;BME280;45999;48.808;9.182;2023-08-21T08:42:39;98679.41;;;27.95;96.45
113;BME280;45999;48.808;9.182;2023-08-21T08:45:06;98678.06;;;27.84;95.49
113;BME280;45999;48.808;9.182;2023-08-21T08:47:33;98681.22;;;27.47;96.13
113;BME280;45999;48.808;9.182;2023-08-21T08:50:04;98681.78;;;27.58;100.00
113;BME280;45999;48.808;9.182;2023-08-21T08:52:35;98679.91;;;27.75;98.07
113;BME280;45999;48.808;9.182;2023-08-21T08:55:02;98683.03;;;27.82;98.19
113;BME280;45999;48.808;9.182;2023-08-21T08:57:29;98675.50;;;27.88;99.95
113;BME280;45999;48.808;9.182;2023-08-21T08:59:55;98687.50;;;27.78;96.63
113;BME280;45999;48.808;9.182;2023-08-21T09:02:24;98683.53;;;27.84;94.75
113;BME280;45999;48.808;9.182;2023-08-21T09:04:50;98681.84;;;28.05;95.95
113;BME280;45999;48.808;9.182;2023-08-21T09:07:17;98677.13;;;28.45;92.55
113;BME280;45999;48.808;9.182;2023-08-21T09:09:46;98684.13;;;28.20;94.41
113;BME280;45999;48.808;9.182;2023-08-21T09:12:14;98675.38;;;28.57;92.11
113;BME280;45999;48.808;9.182;2023-08-21T09:14:42;98680.81;;;28.40;91.61
113;BME280;45999;48.808;9.182;2023-08-21T09:17:09;98678.50;;;28.25;90.04
113;BME280;45999;48.808;9.182;2023-08-21T09:19:36;98681.41;;;28.20;91.98
113;BME280;45999;48.808;9.182;2023-08-21T09:24:37;98670.56;;;28.63;89.90
113;BME280;45999;48.808;9.182;2023-08-21T09:27:04;98664.28;;;28.45;91.37
113;BME280;45999;48.808;9.182;2023-08-21T09:29:38;98670.09;;;28.69;90.45
113;BME280;45999;48.808;9.182;2023-08-21T09:32:05;98666.41;;;29.08;87.81
113;BME280;45999;48.808;9.182;2023-08-21T09:34:36;98669.44;;;28.55;90.36
113;BME280;45999;48.808;9.182;2023-08-21T09:37:07;98672.66;;;29.08;91.99
113;BME280;45999;48.808;9.182;2023-08-21T09:39:35;98675.09;;;29.18;91.50
113;BME280;45999;48.808;9.182;2023-08-21T09:42:06;98676.47;;;29.50;87.67
113;BME280;45999;48.808;9.182;2023-08-21T09:44:40;98665.41;;;29.84;87.38
113;BME280;45999;48.808;9.182;2023-08-21T09:47:09;98669.38;;;29.66;79.56
113;BME280;45999;48.808;9.182;2023-08-21T09:49:36;98672.84;;;29.03;81.69
113;BME280;45999;48.808;9.182;2023-08-21T09:52:05;98670.19;;;29.41;81.70
113;BME280;45999;48.808;9.182;2023-08-21T09:54:33;98666.66;;;29.40;82.49
113;BME280;45999;48.808;9.182;2023-08-21T09:57:01;98665.31;;;29.55;80.70
113;BME280;45999;48.808;9.182;2023-08-21T09:59:29;98664.03;;;29.52;78.33
113;BME280;45999;48.808;9.182;2023-08-21T10:01:59;98666.69;;;29.86;77.92
113;BME280;45999;48.808;9.182;2023-08-21T10:04:28;98664.19;;;29.64;78.27
113;BME280;45999;48.808;9.182;2023-08-21T10:06:56;98661.47;;;30.02;76.00
113;BME280;45999;48.808;9.182;2023-08-21T10:09:23;98655.66;;;30.32;73.92
113;BME280;45999;48.808;9.182;2023-08-21T10:11:52;98656.44;;;30.33;75.91
113;BME280;45999;48.808;9.182;2023-08-21T10:14:22;98647.56;;;30.36;74.09
113;BME280;45999;48.808;9.182;2023-08-21T10:16:51;98645.16;;;30.55;71.14
113;BME280;45999;48.808;9.182;2023-08-21T10:19:17;98640.34;;;30.31;74.15
113;BME280;45999;48.808;9.182;2023-08-21T10:21:47;98633.59;;;30.29;77.06
113;BME280;45999;48.808;9.182;2023-08-21T10:24:26;98631.63;;;30.29;76.73
113;BME280;45999;48.808;9.182;2023-08-21T10:26:52;98636.06;;;30.42;74.04
113;BME280;45999;48.808;9.182;2023-08-21T10:29:19;98630.63;;;30.13;75.03
113;BME280;45999;48.808;9.182;2023-08-21T10:31:45;98632.53;;;30.13;74.14
113;BME280;45999;48.808;9.182;2023-08-21T10:34:12;98635.31;;;30.33;73.74
113;BME280;45999;48.808;9.182;2023-08-21T10:39:17;98624.09;;;29.89;74.73
113;BME280;45999;48.808;9.182;2023-08-21T10:41:57;98623.41;;;30.50;74.25
113;BME280;45999;48.808;9.182;2023-08-21T10:49:40;98620.44;;;30.14;73.17
113;BME280;45999;48.808;9.182;2023-08-21T10:52:08;98615.03;;;29.97;73.05
113;BME280;45999;48.808;9.182;2023-08-21T10:54:50;98620.41;;;30.63;73.27
113;BME280;45999;48.808;9.182;2023-08-21T10:57:17;98613.91;;;30.88;73.10
113;BME280;45999;48.808;9.182;2023-08-21T11:02:17;98620.28;;;31.13;71.06
113;BME280;45999;48.808;9.182;2023-08-21T11:04:44;98611.84;;;31.18;71.17
113;BME280;45999;48.808;9.182;2023-08-21T11:07:10;98617.63;;;31.25;69.68
113;BME280;45999;48.808;9.182;2023-08-21T11:09:38;98616.34;;;31.22;72.37
113;BME280;45999;48.808;9.182;2023-08-21T11:12:12;98613.59;;;31.22;71.55
113;BME280;45999;48.808;9.182;2023-08-21T11:14:39;98610.31;;;31.41;68.13
113;BME280;45999;48.808;9.182;2023-08-21T11:17:07;98615.25;;;31.47;66.46
113;BME280;45999;48.808;9.182;2023-08-21T11:19:34;98617.00;;;31.19;69.08
113;BME280;45999;48.808;9.182;2023-08-21T11:22:01;98610.50;;;30.91;69.18
113;BME280;45999;48.808;9.182;2023-08-21T11:24:50;98615.38;;;30.86;70.62
113;BME280;45999;48.808;9.182;2023-08-21T11:27:18;98607.31;;;31.01;70.17
113;BME280;45999;48.808;9.182;2023-08-21T11:29:49;98615.63;;;31.13;69.14
113;BME280;45999;48.808;9.182;2023-08-21T11:32:18;98612.59;;;31.06;68.38
113;BME280;45999;48.808;9.182;2023-08-21T11:34:51;98609.41;;;31.16;68.53
113;BME280;45999;48.808;9.182;2023-08-21T11:37:18;98608.56;;;31.24;67.59
113;BME280;45999;48.808;9.182;2023-08-21T11:39:48;98603.47;;;31.14;66.64
113;BME280;45999;48.808;9.182;2023-08-21T11:42:15;98603.00;;;31.12;67.10
113;BME280;45999;48.808;9.182;2023-08-21T11:44:47;98598.19;;;31.09;66.46
113;BME280;45999;48.808;9.182;2023-08-21T11:47:15;98599.63;;;30.95;69.95
113;BME280;45999;48.808;9.182;2023-08-21T11:49:42;98595.44;;;31.09;67.17
113;BME280;45999;48.808;9.182;2023-08-21T11:52:10;98592.25;;;31.19;67.85
113;BME280;45999;48.808;9.182;2023-08-21T11:54:37;98588.47;;;31.44;68.12
113;BME280;45999;48.808;9.182;2023-08-21T11:57:12;98591.63;;;31.34;68.11
113;BME280;45999;48.808;9.182;2023-08-21T11:59:39;98597.81;;;31.31;66.98
113;BME280;45999;48.808;9.182;2023-08-21T12:02:17;98595.31;;;31.38;68.80
113;BME280;45999;48.808;9.182;2023-08-21T12:04:44;98586.41;;;31.53;66.28
113;BME280;45999;48.808;9.182;2023-08-21T12:07:11;98592.78;;;31.01;68.15
113;BME280;45999;48.808;9.182;2023-08-21T12:09:38;98591.88;;;31.09;67.25
113;BME280;45999;48.808;9.182;2023-08-21T12:12:05;98593.50;;;30.77;68.78
113;BME280;45999;48.808;9.182;2023-08-21T12:14:31;98597.69;;;30.95;68.03
113;BME280;45999;48.808;9.182;2023-08-21T12:16:58;98588.53;;;31.24;67.24
113;BME280;45999;48.808;9.182;2023-08-21T12:19:24;98586.94;;;31.02;65.30
113;BME280;45999;48.808;9.182;2023-08-21T12:21:51;98588.19;;;31.25;65.48
113;BME280;45999;48.808;9.182;2023-08-21T12:24:17;98582.88;;;31.08;64.15
113;BME280;45999;48.808;9.182;2023-08-21T12:26:43;98586.84;;;31.55;63.64
113;BME280;45999;48.808;9.182;2023-08-21T12:29:10;98580.22;;;31.44;64.79
113;BME280;45999;48.808;9.182;2023-08-21T12:31:36;98576.31;;;31.57;63.71
113;BME280;45999;48.808;9.182;2023-08-21T12:34:03;98575.16;;;31.46;64.80
113;BME280;45999;48.808;9.182;2023-08-21T12:36:29;98569.78;;;31.50;63.55
113;BME280;45999;48.808;9.182;2023-08-21T12:38:56;98571.75;;;31.73;65.95
113;BME280;45999;48.808;9.182;2023-08-21T12:41:22;98565.59;;;31.76;64.97
113;BME280;45999;48.808;9.182;2023-08-21T12:43:48;98573.94;;;31.80;61.60
113;BME280;45999;48.808;9.182;2023-08-21T12:46:15;98563.28;;;31.90;61.66
113;BME280;45999;48.808;9.182;2023-08-21T12:48:41;98558.47;;;31.87;62.25
113;BME280;45999;48.808;9.182;2023-08-21T12:51:08;98560.94;;;32.16;60.51
113;BME280;45999;48.808;9.182;2023-08-21T12:53:35;98560.41;;;31.39;59.19
113;BME280;45999;48.808;9.182;2023-08-21T12:56:01;98553.44;;;31.77;59.91
113;BME280;45999;48.808;9.182;2023-08-21T12:58:29;98550.56;;;31.86;62.05
113;BME280;45999;48.808;9.182;2023-08-21T13:00:55;98548.59;;;31.74;59.54
113;BME280;45999;48.808;9.182;2023-08-21T13:03:22;98555.28;;;31.85;58.24
113;BME280;45999;48.808;9.182;2023-08-21T13:05:48;98551.13;;;31.79;60.00
113;BME280;45999;48.808;9.182;2023-08-21T13:08:14;98551.69;;;31.73;57.50
113;BME280;45999;48.808;9.182;2023-08-21T13:10:41;98548.84;;;31.45;57.96
113;BME280;45999;48.808;9.182;2023-08-21T13:13:07;98546.53;;;31.35;58.51
113;BME280;45999;48.808;9.182;2023-08-21T13:15:33;98548.25;;;31.40;59.98
113;BME280;45999;48.808;9.182;2023-08-21T13:18:00;98545.09;;;30.73;60.30
113;BME280;45999;48.808;9.182;2023-08-21T13:20:26;98546.63;;;30.62;61.16
113;BME280;45999;48.808;9.182;2023-08-21T13:22:53;98542.94;;;30.78;63.59
113;BME280;45999;48.808;9.182;2023-08-21T13:25:23;98540.78;;;30.84;62.00
113;BME280;45999;48.808;9.182;2023-08-21T13:27:51;98540.81;;;30.96;61.15
113;BME280;45999;48.808;9.182;2023-08-21T13:30:17;98543.72;;;31.11;59.38
113;BME280;45999;48.808;9.182;2023-08-21T13:32:44;98536.16;;;31.20;60.84